Portada
METAR-TAF:

METAR-TAF

Aeropuertos :

Curazao, Antillas Neerlandesas

Aeropuerto Internacional Hato

latitud: 12-12N, longitud: 068-58W, altitud: 9 m

Observación

El informe se hizo hace 36 minutos, a las 15:00 UTC
Viento 16 kt del sur-sureste
Temperatura 27°C
Humedad 84%
Presión 1013 hPa
Visibilidad 10 km o más
Nubes dispersas a una altura de 1400 ft
Cielo nuboso a una altura de 7000 ft
chaparrones de lluvia

METAR: TNCC 201500Z 16016KT 9999 SHRA SCT014 BKN070 27/24 Q1013 BECMG NSW

Hora: 11:36 (15:36 UTC)

Pronóstico

El informe se hizo hace 5 horas y 36 minutos, a las 10:00 UTC
Pronóstico válido del 20 a las 12 UTC al 21 a las 12 UTC
Viento 12 kt del este
Visibilidad 10 km o más
Nubes dispersas a una altura de 1800 ft
Temporalmente
del 20 a las 12 UTC al 20 a las 16 UTC
Cielo nuboso a una altura de 1400 ft

TAF: TNCC 201000Z 2012/2112 10012KT 9999 SCT018 TEMPO 2012/2016 BKN014

Observaciones y pronósticos meteorológicos de más de 4000 aeropuertos (mensajes METAR y TAF).

Los puntos amarillos y rojos representan las estaciones disponibles.

Ponga el ratón en el punto deseado para ver el nombre de la estación.

Haga clic para ver las observaciones y los pronósticos meteorológicos.

Para cambiar el mapa : haga clic en los botones verdes con una cruz de color negro para hacer un zoom, en el botón verde con un guión para alejar o en las flechas verdes para mapas adyacentes.


METAR-TAF: